Hanks Station, Illinois
Current Conditions -  °F | °C
As of 8:15 PM on Monday 22 Dec 2014 (Local Time) from KPPQ Reporting Station
Moderate Rain Moderate Rain  
Wind Chill: 43°   Ceiling: 200
Heat Index: 47°   Visibility: 3mi
Dew Point: 46°   Wind: 9mph
Humidity: 95%   Direction: 140°SE
Pressure: 29.5"   Gusts: NA
Location:  39.403°N, 90.4171°W
Report Text: KPPQ 230215Z AUTO 14008KT 3SM RA OVC002 08/08 A2950 RMK AO2 P0001 T00830075
Loading
Personal Weather Stations






























Interactive Weather Map New forecast layout! Learn more

10-Day Weather Forecast

Advertisements
Track Severe Weather on mobile